createdAt,value
2023-02-11T00:02:23.624Z,60.49
2023-02-11T00:04:51.345Z,60.76
2023-02-11T00:07:19.114Z,61.14
2023-02-11T00:09:46.809Z,61.41
2023-02-11T00:12:19.508Z,60.20
2023-02-11T00:14:47.798Z,60.79
2023-02-11T00:17:15.852Z,62.13
2023-02-11T00:19:54.216Z,60.97
2023-02-11T00:22:21.965Z,60.10
2023-02-11T00:24:49.776Z,60.70
2023-02-11T00:27:17.532Z,60.51
2023-02-11T00:29:46.255Z,60.62
2023-02-11T00:32:14.216Z,61.49
2023-02-11T00:34:41.998Z,62.53
2023-02-11T00:37:10.252Z,62.69
2023-02-11T00:39:45.576Z,61.50
2023-02-11T00:42:16.322Z,61.50
2023-02-11T00:44:46.037Z,61.92
2023-02-11T00:47:15.700Z,62.00
2023-02-11T00:49:47.272Z,62.82
2023-02-11T00:52:15.010Z,61.86
2023-02-11T00:54:43.694Z,61.14
2023-02-11T00:57:11.469Z,60.77
2023-02-11T00:59:39.328Z,60.93
2023-02-11T01:02:07.106Z,62.56
2023-02-11T01:04:34.897Z,62.64
2023-02-11T01:07:02.792Z,62.24
2023-02-11T01:09:30.885Z,61.89
2023-02-11T01:11:59.655Z,60.29
2023-02-11T01:14:27.382Z,59.92
2023-02-11T01:16:55.128Z,59.75
2023-02-11T01:19:26.684Z,59.84
2023-02-11T01:22:02.094Z,60.32
2023-02-11T01:24:32.206Z,59.56
2023-02-11T01:27:00.594Z,61.82
2023-02-11T01:29:28.247Z,61.93
2023-02-11T01:32:00.025Z,62.34
2023-02-11T01:34:30.709Z,63.10
2023-02-11T01:36:59.602Z,62.52
2023-02-11T01:39:32.587Z,61.38
2023-02-11T01:42:01.255Z,61.35
2023-02-11T01:44:40.292Z,62.67
2023-02-11T01:47:08.170Z,63.32
2023-02-11T01:49:40.212Z,62.08
2023-02-11T01:52:20.282Z,61.80
2023-02-11T01:55:12.770Z,62.63
2023-02-11T01:57:45.903Z,62.82
2023-02-11T02:00:27.130Z,63.60
2023-02-11T02:03:08.103Z,64.40
2023-02-11T02:06:02.394Z,63.85
2023-02-11T02:08:35.133Z,63.63
2023-02-11T02:11:04.020Z,64.01
2023-02-11T02:13:36.981Z,63.76
2023-02-11T02:16:15.736Z,62.05
2023-02-11T02:19:38.061Z,63.70
2023-02-11T02:22:42.033Z,63.76
2023-02-11T02:25:58.221Z,63.15
2023-02-11T02:29:20.025Z,63.06
2023-02-11T02:32:12.511Z,64.34
2023-02-11T02:34:48.988Z,63.89
2023-02-11T02:37:31.408Z,63.01
2023-02-11T02:40:18.056Z,64.49
2023-02-11T02:42:47.306Z,64.06
2023-02-11T02:45:19.506Z,65.50
2023-02-11T02:47:47.280Z,65.49
2023-02-11T02:50:40.764Z,64.80
2023-02-11T02:57:28.695Z,100.00
2023-02-11T03:04:21.058Z,100.00
2023-02-11T03:11:08.166Z,100.00
2023-02-11T03:17:37.530Z,100.00
2023-02-11T03:24:16.420Z,100.00
2023-02-11T03:29:27.177Z,64.80
2023-02-11T03:36:21.098Z,100.00
2023-02-11T03:43:04.056Z,100.00
2023-02-11T03:45:31.923Z,64.04
2023-02-11T03:48:14.776Z,65.13
2023-02-11T03:50:50.357Z,64.62
2023-02-11T03:53:20.516Z,65.63
2023-02-11T03:55:56.117Z,65.57
2023-02-11T03:58:24.038Z,65.25
2023-02-11T04:00:52.203Z,66.54
2023-02-11T04:03:20.054Z,64.86
2023-02-11T04:05:48.285Z,64.67
2023-02-11T04:08:18.464Z,65.75
2023-02-11T04:10:46.390Z,66.38
2023-02-11T04:13:15.161Z,63.91
2023-02-11T04:19:10.449Z,100.00
2023-02-11T04:25:53.454Z,100.00
2023-02-11T04:32:28.351Z,100.00
2023-02-11T04:39:16.241Z,100.00
2023-02-11T04:45:41.317Z,100.00
2023-02-11T04:52:02.670Z,100.00
2023-02-11T04:54:32.226Z,68.24
2023-02-11T04:56:59.952Z,69.25
2023-02-11T04:59:27.736Z,68.04
2023-02-11T05:01:55.870Z,68.35
2023-02-11T05:04:35.492Z,67.15
2023-02-11T05:07:03.261Z,67.91
2023-02-11T05:09:35.580Z,68.61
2023-02-11T05:12:03.526Z,68.96
2023-02-11T05:14:31.281Z,71.00
2023-02-11T05:17:08.994Z,71.31
2023-02-11T05:19:36.700Z,71.71
2023-02-11T05:22:04.472Z,72.92
2023-02-11T05:27:24.671Z,72.92
2023-02-11T05:29:55.872Z,74.29
2023-02-11T05:32:30.780Z,74.35
2023-02-11T05:35:01.026Z,73.70
2023-02-11T05:37:28.963Z,72.46
2023-02-11T05:39:59.180Z,74.10
2023-02-11T05:42:26.998Z,73.78
2023-02-11T05:44:59.793Z,73.35
2023-02-11T05:47:30.280Z,73.21
2023-02-11T05:50:02.377Z,73.46
2023-02-11T05:52:42.219Z,73.14
2023-02-11T05:55:10.682Z,73.28
2023-02-11T05:57:45.438Z,73.34
2023-02-11T06:00:19.427Z,74.30
2023-02-11T06:02:47.042Z,73.84
2023-02-11T06:09:55.637Z,100.00
2023-02-11T06:16:29.672Z,100.00
2023-02-11T06:23:14.974Z,100.00
2023-02-11T06:28:36.029Z,73.84
2023-02-11T06:31:10.029Z,70.74
2023-02-11T06:33:51.908Z,71.52
2023-02-11T06:36:22.134Z,72.50
2023-02-11T06:38:50.085Z,72.77
2023-02-11T06:41:22.094Z,72.22
2023-02-11T06:43:57.247Z,72.48
2023-02-11T06:46:25.119Z,72.42
2023-02-11T06:48:56.150Z,71.32
2023-02-11T06:51:28.373Z,72.68
2023-02-11T06:53:56.252Z,71.83
2023-02-11T06:56:27.543Z,71.51
2023-02-11T06:58:58.138Z,72.89
2023-02-11T07:01:29.189Z,72.50
2023-02-11T07:04:09.254Z,71.06
2023-02-11T07:06:40.034Z,72.84
2023-02-11T07:09:08.293Z,71.72
2023-02-11T07:11:38.961Z,70.73
2023-02-11T07:14:10.714Z,70.94
2023-02-11T07:16:48.109Z,73.28
2023-02-11T07:19:36.771Z,72.41
2023-02-11T07:22:16.374Z,72.62
2023-02-11T07:24:49.229Z,71.51
2023-02-11T07:27:17.015Z,69.87
2023-02-11T07:29:48.676Z,69.95
2023-02-11T07:32:19.806Z,69.40
2023-02-11T07:34:50.636Z,71.36
2023-02-11T07:37:18.851Z,69.56
2023-02-11T07:40:38.712Z,69.89
2023-02-11T07:43:00.922Z,71.91
2023-02-11T07:45:50.054Z,70.50
2023-02-11T07:48:18.613Z,71.05
2023-02-11T07:50:49.539Z,71.50
2023-02-11T07:53:17.778Z,70.62
2023-02-11T07:55:58.509Z,72.64
2023-02-11T07:58:46.448Z,73.30
2023-02-11T08:01:38.554Z,71.81
2023-02-11T08:10:19.138Z,74.26
2023-02-11T08:13:05.323Z,73.97
2023-02-11T08:16:26.928Z,74.10
2023-02-11T08:19:01.992Z,74.32
2023-02-11T08:22:10.019Z,75.14
2023-02-11T08:25:07.955Z,75.03
2023-02-11T08:27:40.057Z,75.66
2023-02-11T08:30:30.455Z,75.37
2023-02-11T08:32:59.206Z,74.57
2023-02-11T08:35:29.372Z,74.45
2023-02-11T08:38:17.344Z,75.52
2023-02-11T08:44:49.150Z,100.00
2023-02-11T09:04:59.613Z,75.52
2023-02-11T09:07:36.193Z,71.28
2023-02-11T09:10:07.064Z,72.03
2023-02-11T09:12:38.491Z,71.83
2023-02-11T09:19:37.044Z,100.00
2023-02-11T09:22:19.467Z,72.05
2023-02-11T09:25:07.188Z,72.22
2023-02-11T09:27:48.718Z,73.68
2023-02-11T09:30:20.731Z,74.74
2023-02-11T09:33:37.603Z,75.00
2023-02-11T09:36:58.465Z,74.63
2023-02-11T09:39:23.710Z,73.95
2023-02-11T09:42:19.450Z,72.83
2023-02-11T09:45:56.751Z,74.95
